createdAt,value
2023-03-28T00:01:10.794Z,2.50
2023-03-28T00:03:39.825Z,1.40
2023-03-28T00:06:15.799Z,0.80
2023-03-28T00:08:45.461Z,1.00
2023-03-28T00:11:18.947Z,1.20
2023-03-28T00:14:03.027Z,1.10
2023-03-28T00:16:34.893Z,0.90
2023-03-28T00:19:06.595Z,1.10
2023-03-28T00:21:38.293Z,0.90
2023-03-28T00:24:13.197Z,0.90
2023-03-28T00:26:42.056Z,1.30
2023-03-28T00:29:20.403Z,1.10
2023-03-28T00:31:49.499Z,1.20
2023-03-28T00:34:17.479Z,1.10
2023-03-28T00:36:44.871Z,1.30
2023-03-28T00:39:12.862Z,1.30
2023-03-28T00:41:43.461Z,1.10
2023-03-28T00:44:51.298Z,0.80
2023-03-28T00:47:27.286Z,0.90
2023-03-28T00:49:59.838Z,0.90
2023-03-28T00:52:30.100Z,0.90
2023-03-28T00:54:59.239Z,1.00
2023-03-28T00:57:27.671Z,0.90
2023-03-28T00:59:55.412Z,1.10
2023-03-28T01:02:23.303Z,0.90
2023-03-28T01:05:03.304Z,1.10
2023-03-28T01:07:39.138Z,1.10
2023-03-28T01:10:08.003Z,1.20
2023-03-28T01:12:36.404Z,1.10
2023-03-28T01:15:04.878Z,1.10
2023-03-28T01:17:41.445Z,1.10
2023-03-28T01:20:39.514Z,0.90
2023-03-28T01:23:46.392Z,1.20
2023-03-28T01:26:22.633Z,1.00
2023-03-28T01:29:29.059Z,1.40
2023-03-28T01:32:32.729Z,1.00
2023-03-28T01:35:29.679Z,1.30
2023-03-28T01:38:25.524Z,1.30
2023-03-28T01:41:20.948Z,1.20
2023-03-28T01:44:23.562Z,1.70
2023-03-28T01:47:24.793Z,1.80
2023-03-28T01:50:31.813Z,1.70
2023-03-28T01:53:18.717Z,1.80
2023-03-28T01:56:01.428Z,1.20
2023-03-28T01:59:00.400Z,1.60
2023-03-28T02:02:09.280Z,1.90
2023-03-28T02:04:39.319Z,1.60
2023-03-28T02:07:08.500Z,1.60
2023-03-28T02:09:43.327Z,1.30
2023-03-28T02:12:33.222Z,1.80
2023-03-28T02:15:14.675Z,1.60
2023-03-28T02:18:36.872Z,1.70
2023-03-28T02:21:48.766Z,1.80
2023-03-28T02:24:31.002Z,1.60
2023-03-28T02:27:18.304Z,1.80
2023-03-28T02:29:58.962Z,1.80
2023-03-28T02:32:35.592Z,1.90
2023-03-28T02:35:06.698Z,2.00
2023-03-28T02:38:31.363Z,1.60
2023-03-28T02:41:58.993Z,1.70
2023-03-28T02:44:59.938Z,1.60
2023-03-28T02:48:05.128Z,1.90
2023-03-28T02:50:46.019Z,2.20
2023-03-28T02:53:59.436Z,1.80
2023-03-28T02:57:00.636Z,2.00
2023-03-28T02:59:49.081Z,2.10
2023-03-28T03:02:21.406Z,2.10
2023-03-28T03:04:50.346Z,2.20
2023-03-28T03:07:18.575Z,2.50
2023-03-28T03:09:46.652Z,2.30
2023-03-28T03:12:14.130Z,2.00
2023-03-28T03:14:41.594Z,2.10
2023-03-28T03:17:28.317Z,2.10
2023-03-28T03:19:56.043Z,2.30
2023-03-28T03:22:23.822Z,2.00
2023-03-28T03:24:51.819Z,2.20
2023-03-28T03:27:20.781Z,2.30
2023-03-28T03:29:48.597Z,2.00
2023-03-28T03:32:16.898Z,2.10
2023-03-28T03:34:51.710Z,2.20
2023-03-28T03:37:19.172Z,1.80
2023-03-28T03:39:46.812Z,2.10
2023-03-28T03:42:15.312Z,1.80
2023-03-28T03:44:42.721Z,2.30
2023-03-28T03:47:10.532Z,1.90
2023-03-28T03:49:37.894Z,2.20
2023-03-28T03:52:05.512Z,1.80
2023-03-28T03:54:33.966Z,2.00
2023-03-28T03:57:02.592Z,1.70
2023-03-28T03:59:30.318Z,2.30
2023-03-28T04:01:58.493Z,2.20
2023-03-28T04:04:32.406Z,2.30
2023-03-28T04:07:24.473Z,2.60
2023-03-28T04:09:53.024Z,2.30
2023-03-28T04:12:20.493Z,2.20
2023-03-28T04:14:50.296Z,2.50
2023-03-28T04:17:34.470Z,2.50
2023-03-28T04:20:11.310Z,2.70
2023-03-28T04:22:48.213Z,2.90
2023-03-28T04:25:21.180Z,3.20
2023-03-28T04:27:48.831Z,3.00
2023-03-28T04:30:17.245Z,2.70
2023-03-28T04:33:03.885Z,3.10
2023-03-28T04:35:37.058Z,2.90
2023-03-28T04:38:04.521Z,3.10
2023-03-28T04:40:32.522Z,2.50
2023-03-28T04:43:16.225Z,2.50
2023-03-28T04:48:17.623Z,2.20
2023-03-28T04:50:45.213Z,2.40
2023-03-28T04:53:13.958Z,2.40
2023-03-28T04:55:54.592Z,2.50
2023-03-28T04:58:23.726Z,2.40
2023-03-28T05:00:51.188Z,2.50
2023-03-28T05:04:17.191Z,3.10
2023-03-28T05:06:46.581Z,3.30
2023-03-28T05:09:15.830Z,4.20
2023-03-28T05:11:45.926Z,3.70
2023-03-28T05:14:13.728Z,3.40
2023-03-28T05:16:47.277Z,3.60
2023-03-28T05:19:38.443Z,2.90
2023-03-28T05:22:10.066Z,3.00
2023-03-28T05:24:38.505Z,2.60
2023-03-28T05:27:11.806Z,2.90
2023-03-28T05:29:39.173Z,3.00
2023-03-28T05:32:06.702Z,2.70
2023-03-28T05:34:35.574Z,2.00
2023-03-28T05:37:03.353Z,2.20
2023-03-28T05:39:35.632Z,2.20
2023-03-28T05:42:05.256Z,2.40
2023-03-28T05:44:34.334Z,2.50
2023-03-28T05:48:00.433Z,2.70
2023-03-28T05:50:28.990Z,2.70
2023-03-28T05:53:04.188Z,3.40
2023-03-28T05:55:34.375Z,3.10
2023-03-28T05:58:07.277Z,3.20
2023-03-28T06:00:39.549Z,3.10
2023-03-28T06:03:07.086Z,3.40
2023-03-28T06:05:38.627Z,3.00
2023-03-28T06:08:17.308Z,2.80
2023-03-28T06:10:44.789Z,3.30
2023-03-28T06:13:21.245Z,3.50
2023-03-28T06:15:48.669Z,2.70
2023-03-28T06:18:16.984Z,3.40
2023-03-28T06:20:46.172Z,2.90
2023-03-28T06:23:13.623Z,3.20
2023-03-28T06:25:41.298Z,3.90
2023-03-28T06:28:08.990Z,3.90
2023-03-28T06:30:54.335Z,3.70
2023-03-28T06:33:21.712Z,3.00
2023-03-28T06:35:49.082Z,4.60
2023-03-28T06:38:16.571Z,4.40
2023-03-28T06:40:48.820Z,4.40
2023-03-28T06:43:16.234Z,3.40
2023-03-28T06:45:48.865Z,3.10
2023-03-28T06:48:16.234Z,3.90
2023-03-28T06:51:05.619Z,3.80
2023-03-28T06:53:33.001Z,3.80
2023-03-28T06:56:00.455Z,3.90
2023-03-28T06:58:29.808Z,4.70
2023-03-28T07:01:01.731Z,3.50
2023-03-28T07:03:45.733Z,3.70
2023-03-28T07:06:18.062Z,4.10
2023-03-28T07:08:45.673Z,3.30
2023-03-28T07:11:13.349Z,3.30
2023-03-28T07:13:41.409Z,3.40
2023-03-28T07:16:15.573Z,4.10
2023-03-28T07:18:44.046Z,4.10
2023-03-28T07:21:18.177Z,4.70
2023-03-28T07:23:45.532Z,3.60
2023-03-28T07:26:15.454Z,3.70
2023-03-28T07:28:42.985Z,3.70
2023-03-28T07:31:11.587Z,3.90
2023-03-28T07:33:39.382Z,3.70
2023-03-28T07:36:18.634Z,3.70
2023-03-28T07:38:49.716Z,3.70
2023-03-28T07:41:18.552Z,3.80
2023-03-28T07:43:45.858Z,3.90
2023-03-28T07:46:15.553Z,3.60
2023-03-28T07:48:45.816Z,4.10
2023-03-28T07:51:14.442Z,4.10
2023-03-28T07:53:42.156Z,3.60
2023-03-28T07:56:10.079Z,4.00
2023-03-28T07:58:51.250Z,3.40
2023-03-28T08:01:19.114Z,4.50
2023-03-28T08:03:49.539Z,4.20
2023-03-28T08:06:30.909Z,3.50
2023-03-28T08:09:00.691Z,3.30
2023-03-28T08:12:14.492Z,3.00
2023-03-28T08:14:42.926Z,3.10
2023-03-28T08:17:10.369Z,3.20
2023-03-28T08:19:37.731Z,2.90
2023-03-28T08:22:15.937Z,2.90
2023-03-28T08:24:57.339Z,3.00
2023-03-28T08:27:25.214Z,3.00
2023-03-28T08:29:57.491Z,3.30
2023-03-28T08:32:26.314Z,3.60
2023-03-28T08:34:55.095Z,2.80
2023-03-28T08:37:24.431Z,3.50
2023-03-28T08:39:51.728Z,3.50
2023-03-28T08:43:00.986Z,3.10
2023-03-28T08:45:56.360Z,3.40
2023-03-28T08:48:31.132Z,3.30
2023-03-28T08:51:21.942Z,3.50
2023-03-28T08:54:17.839Z,3.30
2023-03-28T08:56:57.776Z,3.80
2023-03-28T08:59:42.900Z,3.40
2023-03-28T09:02:22.085Z,3.80
2023-03-28T09:04:51.190Z,3.20
2023-03-28T09:07:59.975Z,3.40
2023-03-28T09:10:40.162Z,3.30
2023-03-28T09:16:29.932Z,3.60
2023-03-28T09:19:37.097Z,3.30
2023-03-28T09:22:58.166Z,3.20
2023-03-28T09:26:06.077Z,3.20
2023-03-28T09:28:52.749Z,3.10
2023-03-28T09:31:27.456Z,2.60
2023-03-28T09:33:58.418Z,2.90
2023-03-28T09:36:45.389Z,3.20
2023-03-28T09:39:36.281Z,2.90
2023-03-28T09:42:14.748Z,2.80
2023-03-28T09:44:58.247Z,2.90
2023-03-28T09:47:49.255Z,2.80
2023-03-28T09:50:20.209Z,2.70
2023-03-28T09:52:50.841Z,2.80
2023-03-28T09:55:30.610Z,2.20
2023-03-28T09:58:08.617Z,2.50
2023-03-28T10:00:59.033Z,2.30
2023-03-28T10:04:41.429Z,2.20
2023-03-28T10:07:43.442Z,2.30
2023-03-28T10:10:24.432Z,2.40
2023-03-28T10:13:02.565Z,2.20
2023-03-28T10:15:33.329Z,1.80
2023-03-28T10:18:26.733Z,2.10
2023-03-28T10:21:15.039Z,2.20
2023-03-28T10:23:57.866Z,1.70
2023-03-28T10:26:26.930Z,2.50
2023-03-28T10:29:03.765Z,2.20
2023-03-28T10:31:33.413Z,1.90
2023-03-28T10:34:32.756Z,2.60
2023-03-28T10:37:27.235Z,2.00
2023-03-28T10:40:19.326Z,2.20
2023-03-28T10:43:13.418Z,2.40
2023-03-28T10:45:50.617Z,2.00
2023-03-28T10:48:31.026Z,2.00
2023-03-28T10:51:08.353Z,2.00
2023-03-28T10:53:56.286Z,2.30
2023-03-28T10:56:42.296Z,1.70
2023-03-28T10:59:16.244Z,2.60
2023-03-28T11:02:15.632Z,1.60
2023-03-28T11:05:13.897Z,2.30
2023-03-28T11:07:55.775Z,1.60
2023-03-28T11:10:56.836Z,1.60
2023-03-28T11:13:42.920Z,3.10
2023-03-28T11:16:29.633Z,1.50
2023-03-28T11:19:56.179Z,1.60
2023-03-28T11:22:30.972Z,1.50
2023-03-28T11:25:10.459Z,1.80
2023-03-28T11:28:31.200Z,1.60
2023-03-28T11:31:11.115Z,1.80
2023-03-28T11:34:10.643Z,1.70
2023-03-28T11:36:50.652Z,1.70
2023-03-28T11:39:45.028Z,1.80
2023-03-28T11:42:36.201Z,1.30
2023-03-28T11:45:51.001Z,1.20
2023-03-28T11:48:44.083Z,1.30
2023-03-28T11:51:31.745Z,1.20
2023-03-28T11:54:39.295Z,1.10
2023-03-28T11:57:30.512Z,1.10
2023-03-28T12:00:34.722Z,1.40
2023-03-28T12:03:29.826Z,1.20
2023-03-28T12:06:08.383Z,2.40
2023-03-28T12:08:58.438Z,1.30
2023-03-28T12:11:56.008Z,1.40
2023-03-28T12:14:41.711Z,1.50
2023-03-28T12:17:29.857Z,1.10
2023-03-28T12:19:57.349Z,1.60
2023-03-28T12:22:40.309Z,1.50
2023-03-28T12:28:20.079Z,1.90
2023-03-28T12:31:24.591Z,1.10
2023-03-28T12:34:29.515Z,1.20
2023-03-28T12:38:28.713Z,1.50
2023-03-28T12:41:15.459Z,1.60
2023-03-28T12:44:28.843Z,1.40
2023-03-28T12:47:23.440Z,1.10
2023-03-28T12:49:58.209Z,1.80
2023-03-28T12:52:32.041Z,1.60
2023-03-28T12:55:27.779Z,1.30
2023-03-28T12:58:36.126Z,1.20
2023-03-28T13:01:56.442Z,1.50
2023-03-28T13:04:54.544Z,1.90
2023-03-28T13:07:54.811Z,1.60
2023-03-28T13:11:07.282Z,1.20
2023-03-28T13:14:24.468Z,1.10
2023-03-28T13:17:01.228Z,1.70
2023-03-28T13:20:08.949Z,1.10
2023-03-28T13:22:59.975Z,1.20
2023-03-28T13:25:31.740Z,0.90
2023-03-28T13:28:11.309Z,1.80
2023-03-28T13:30:44.965Z,1.40
2023-03-28T13:33:37.664Z,1.10
2023-03-28T13:36:05.180Z,1.10
2023-03-28T13:38:45.451Z,1.10
2023-03-28T13:41:40.763Z,1.40
2023-03-28T13:44:19.913Z,1.20
2023-03-28T13:46:56.593Z,0.90
2023-03-28T13:49:30.909Z,1.20
2023-03-28T13:52:14.166Z,1.00
2023-03-28T13:54:41.683Z,0.80
2023-03-28T13:57:18.357Z,0.90
2023-03-28T14:00:06.259Z,1.10
2023-03-28T14:02:51.918Z,1.20
2023-03-28T14:05:25.342Z,1.90
2023-03-28T14:08:03.604Z,1.80
2023-03-28T14:10:38.939Z,2.60
2023-03-28T14:13:12.477Z,2.20
2023-03-28T14:15:42.634Z,1.30
2023-03-28T14:18:48.419Z,1.50
2023-03-28T14:21:16.378Z,1.70
2023-03-28T14:23:55.793Z,1.40
2023-03-28T14:26:27.173Z,1.30
2023-03-28T14:29:20.034Z,1.80
2023-03-28T14:31:48.006Z,1.30
2023-03-28T14:34:26.051Z,1.40
2023-03-28T14:36:57.932Z,1.20
2023-03-28T14:39:28.744Z,1.40
2023-03-28T14:41:59.149Z,0.90
2023-03-28T14:44:26.679Z,1.40
2023-03-28T14:46:58.930Z,1.60
2023-03-28T14:49:27.426Z,1.50
2023-03-28T14:51:58.435Z,1.40
2023-03-28T14:54:33.849Z,1.60
2023-03-28T14:57:04.170Z,1.70
2023-03-28T14:59:41.210Z,3.30
2023-03-28T15:02:40.240Z,1.90
2023-03-28T15:05:18.855Z,2.00
2023-03-28T15:07:59.214Z,1.50
2023-03-28T15:10:27.669Z,1.60
2023-03-28T15:13:24.919Z,1.90
2023-03-28T15:15:56.352Z,2.40
2023-03-28T15:18:32.988Z,2.10
2023-03-28T15:21:03.253Z,2.50
2023-03-28T15:23:37.764Z,2.60
2023-03-28T15:26:20.791Z,2.10
2023-03-28T15:28:48.816Z,1.90
2023-03-28T15:31:16.645Z,1.80
2023-03-28T15:33:46.663Z,2.00
2023-03-28T15:36:24.574Z,2.30
2023-03-28T15:39:21.579Z,2.20
2023-03-28T15:41:53.520Z,2.30
2023-03-28T15:44:33.861Z,2.10
2023-03-28T15:47:21.265Z,1.90
2023-03-28T15:49:50.464Z,2.30
2023-03-28T15:52:21.138Z,2.40
2023-03-28T15:54:53.694Z,2.10
2023-03-28T15:57:24.603Z,2.70
2023-03-28T15:59:52.893Z,2.00
2023-03-28T16:02:30.415Z,1.90
2023-03-28T16:05:09.846Z,1.50
2023-03-28T16:07:43.400Z,1.80
2023-03-28T16:10:12.762Z,1.70
2023-03-28T16:12:55.230Z,1.90
2023-03-28T16:15:46.169Z,1.70
2023-03-28T16:18:25.422Z,1.50
2023-03-28T16:20:55.990Z,1.80
2023-03-28T16:23:23.654Z,2.40
2023-03-28T16:25:52.246Z,1.70
2023-03-28T16:28:23.742Z,1.90
2023-03-28T16:30:52.808Z,1.90
2023-03-28T16:33:21.891Z,1.70
2023-03-28T16:35:49.396Z,2.30
2023-03-28T16:38:18.450Z,2.40
2023-03-28T16:40:49.135Z,2.00
2023-03-28T16:43:18.331Z,2.00
2023-03-28T16:45:56.568Z,2.00
2023-03-28T16:48:24.116Z,2.40
2023-03-28T16:50:58.140Z,2.30
2023-03-28T16:53:25.783Z,2.10
2023-03-28T16:56:01.220Z,2.20
2023-03-28T16:58:29.837Z,2.70
2023-03-28T17:00:57.906Z,2.30
2023-03-28T17:03:27.751Z,2.20
2023-03-28T17:06:01.651Z,2.90
2023-03-28T17:08:29.143Z,3.00
2023-03-28T17:10:58.143Z,2.90
2023-03-28T17:13:26.683Z,2.70
2023-03-28T17:15:55.856Z,2.00
2023-03-28T17:18:23.218Z,2.50
2023-03-28T17:21:03.442Z,2.20
2023-03-28T17:23:32.381Z,2.10
2023-03-28T17:26:00.272Z,2.20
2023-03-28T17:28:38.224Z,2.70
2023-03-28T17:31:16.578Z,2.20
2023-03-28T17:33:46.070Z,2.10
2023-03-28T17:38:38.851Z,2.60
2023-03-28T17:41:08.482Z,2.40
2023-03-28T17:43:41.030Z,2.80
2023-03-28T17:46:12.257Z,2.40
2023-03-28T17:48:42.031Z,2.70
2023-03-28T17:51:11.926Z,2.00
2023-03-28T18:09:42.663Z,3.60
2023-03-28T18:12:13.003Z,3.60
2023-03-28T18:14:42.204Z,3.60
2023-03-28T18:17:12.217Z,3.80
2023-03-28T18:19:41.196Z,3.20
2023-03-28T18:22:11.114Z,4.00
2023-03-28T18:24:39.999Z,4.10
2023-03-28T18:27:09.206Z,3.60
2023-03-28T18:29:38.302Z,3.30
2023-03-28T18:32:07.198Z,3.30
2023-03-28T18:34:36.393Z,3.70
2023-03-28T18:37:06.002Z,4.10
2023-03-28T18:39:36.098Z,4.70
2023-03-28T18:42:06.604Z,4.30
2023-03-28T18:44:37.339Z,3.90
2023-03-28T18:47:07.003Z,5.70
2023-03-28T18:49:35.782Z,6.10
2023-03-28T18:52:05.021Z,6.00
2023-03-28T18:54:35.960Z,5.70
2023-03-28T18:57:05.559Z,5.30
2023-03-28T18:59:34.360Z,5.70
2023-03-28T19:02:03.677Z,7.00
2023-03-28T19:04:33.540Z,10.10
2023-03-28T19:07:02.373Z,4.80
2023-03-28T19:09:31.111Z,4.20
2023-03-28T19:12:01.542Z,4.50
2023-03-28T19:14:30.947Z,4.70
2023-03-28T19:17:00.267Z,4.20
2023-03-28T19:19:29.720Z,5.40
2023-03-28T19:21:58.550Z,4.20
2023-03-28T19:24:27.571Z,4.70
2023-03-28T19:26:58.861Z,4.40
2023-03-28T19:29:28.911Z,4.80
2023-03-28T19:31:57.813Z,5.60
2023-03-28T19:34:28.320Z,4.50
2023-03-28T19:36:57.126Z,4.80
2023-03-28T19:39:25.924Z,4.10
2023-03-28T19:41:56.143Z,4.60
2023-03-28T19:44:25.219Z,4.70
2023-03-28T19:46:54.070Z,4.10
2023-03-28T19:49:23.206Z,4.80
2023-03-28T19:51:53.399Z,3.90
2023-03-28T19:54:22.169Z,5.00
2023-03-28T19:56:51.059Z,4.80
2023-03-28T19:59:20.112Z,5.00
2023-03-28T20:01:49.139Z,4.70
2023-03-28T20:04:21.098Z,4.10
2023-03-28T20:06:50.091Z,4.20
2023-03-28T20:09:19.051Z,4.40
2023-03-28T20:11:48.032Z,4.20
2023-03-28T20:14:17.453Z,3.80
2023-03-28T20:16:46.238Z,5.20
2023-03-28T20:19:15.039Z,4.90
2023-03-28T20:21:45.054Z,4.00
2023-03-28T20:24:14.243Z,4.40
2023-03-28T20:26:43.043Z,4.90
2023-03-28T20:29:14.019Z,4.40
2023-03-28T20:31:42.963Z,5.00
2023-03-28T20:34:12.166Z,4.70
2023-03-28T20:36:42.599Z,5.60
2023-03-28T20:39:11.381Z,4.40
2023-03-28T20:41:40.688Z,5.00
2023-03-28T20:44:09.479Z,5.10
2023-03-28T20:46:38.447Z,4.70
2023-03-28T20:49:08.206Z,4.90
2023-03-28T20:51:39.317Z,4.80
2023-03-28T20:54:08.434Z,4.40
2023-03-28T20:56:37.341Z,3.80
2023-03-28T20:59:06.542Z,4.30
2023-03-28T21:01:39.799Z,5.20
2023-03-28T21:04:08.799Z,3.90
2023-03-28T21:06:38.528Z,4.20
2023-03-28T21:09:11.195Z,5.50
2023-03-28T21:11:40.609Z,5.10
2023-03-28T21:14:12.760Z,4.00
2023-03-28T21:16:42.039Z,5.50
2023-03-28T21:19:10.854Z,4.30
2023-03-28T21:21:40.648Z,5.50
2023-03-28T21:24:09.419Z,5.50
2023-03-28T21:26:38.086Z,4.20
2023-03-28T21:29:07.026Z,4.60
2023-03-28T21:31:37.213Z,4.70
2023-03-28T21:34:06.056Z,4.50
2023-03-28T21:36:34.934Z,4.90
2023-03-28T21:39:04.023Z,5.30
2023-03-28T21:41:32.791Z,5.10
2023-03-28T21:44:01.439Z,5.00
2023-03-28T21:46:30.205Z,5.50
2023-03-28T21:48:58.944Z,6.00
2023-03-28T21:51:27.673Z,5.30
2023-03-28T21:53:57.019Z,5.60
2023-03-28T21:56:26.357Z,5.40
2023-03-28T21:58:55.124Z,5.00
2023-03-28T22:01:23.857Z,4.10
2023-03-28T22:03:52.543Z,5.30
2023-03-28T22:06:21.345Z,3.80
2023-03-28T22:08:52.752Z,5.20
2023-03-28T22:11:28.328Z,5.70
2023-03-28T22:14:02.335Z,5.40
2023-03-28T22:16:37.971Z,4.30
2023-03-28T22:19:11.528Z,5.60
2023-03-28T22:21:40.294Z,5.70
2023-03-28T22:24:13.398Z,4.80
2023-03-28T22:29:11.896Z,5.10
2023-03-28T22:31:40.774Z,5.30
2023-03-28T22:34:09.506Z,4.50
2023-03-28T22:36:38.258Z,4.20
2023-03-28T22:39:07.902Z,4.60
2023-03-28T22:41:36.574Z,4.30
2023-03-28T22:44:05.466Z,4.60
2023-03-28T22:46:34.270Z,4.30
2023-03-28T22:49:04.713Z,4.40
2023-03-28T22:51:33.456Z,4.50
2023-03-28T22:54:03.379Z,5.00
2023-03-28T22:56:32.097Z,4.70
2023-03-28T22:59:01.596Z,5.20
2023-03-28T23:01:30.577Z,4.90
2023-03-28T23:03:59.359Z,3.80
2023-03-28T23:06:28.832Z,4.70
2023-03-28T23:08:58.891Z,4.50
2023-03-28T23:11:27.676Z,4.20
2023-03-28T23:13:56.350Z,5.00
2023-03-28T23:16:25.048Z,4.80
2023-03-28T23:18:53.919Z,4.90
2023-03-28T23:21:23.197Z,4.70
2023-03-28T23:23:52.596Z,5.80
2023-03-28T23:26:21.471Z,6.00
2023-03-28T23:28:50.287Z,6.20
2023-03-28T23:31:19.042Z,6.10
2023-03-28T23:33:47.821Z,6.70
2023-03-28T23:36:20.861Z,5.00
2023-03-28T23:41:18.936Z,6.40
2023-03-28T23:43:47.636Z,4.70
2023-03-28T23:46:16.491Z,6.50
2023-03-28T23:48:45.377Z,6.20
2023-03-28T23:51:14.294Z,5.40
2023-03-28T23:53:43.007Z,5.80
2023-03-28T23:56:11.791Z,5.10
2023-03-28T23:58:40.417Z,6.60
